createdAt,value
2023-04-20T00:01:14.658Z,98994.00
2023-04-20T00:03:52.174Z,98991.40
2023-04-20T00:06:33.223Z,98989.40
2023-04-20T00:09:09.692Z,98989.80
2023-04-20T00:11:48.364Z,98990.00
2023-04-20T00:14:24.936Z,98993.20
2023-04-20T00:17:01.278Z,98993.40
2023-04-20T00:19:37.651Z,98993.40
2023-04-20T00:22:17.712Z,98989.80
2023-04-20T00:24:54.015Z,98985.00
2023-04-20T00:27:36.302Z,98984.40
2023-04-20T00:30:20.744Z,98983.40
2023-04-20T00:32:57.369Z,98982.40
2023-04-20T00:35:34.465Z,98980.20
2023-04-20T00:38:10.817Z,98982.20
2023-04-20T00:40:53.230Z,98983.60
2023-04-20T00:43:29.770Z,98981.00
2023-04-20T00:46:06.276Z,98981.80
2023-04-20T00:48:49.117Z,98981.40
2023-04-20T00:51:26.500Z,98981.00
2023-04-20T00:54:03.268Z,98979.40
2023-04-20T00:56:40.928Z,98980.40
2023-04-20T00:59:18.110Z,98981.00
2023-04-20T01:01:55.752Z,98981.40
2023-04-20T01:04:32.331Z,98980.40
2023-04-20T01:07:09.157Z,98979.00
2023-04-20T01:09:45.469Z,98983.60
2023-04-20T01:12:21.630Z,98986.60
2023-04-20T01:14:58.030Z,98985.40
2023-04-20T01:17:35.007Z,98990.00
2023-04-20T01:20:15.335Z,98988.60
2023-04-20T01:22:56.762Z,98986.60
2023-04-20T01:25:33.894Z,98979.60
2023-04-20T01:28:11.313Z,98979.60
2023-04-20T01:30:48.218Z,98973.20
2023-04-20T01:33:24.607Z,98975.80
2023-04-20T01:36:02.142Z,98977.20
2023-04-20T01:38:39.588Z,98975.80
2023-04-20T01:41:16.537Z,98974.00
2023-04-20T01:43:52.899Z,98974.80
2023-04-20T01:46:29.468Z,98969.40
2023-04-20T01:49:06.084Z,98975.40
2023-04-20T01:51:42.560Z,98966.00
2023-04-20T01:54:18.865Z,98967.40
2023-04-20T01:56:55.351Z,98969.60
2023-04-20T01:59:33.574Z,98973.20
2023-04-20T02:02:11.414Z,98971.40
2023-04-20T02:04:53.401Z,98975.00
2023-04-20T02:07:30.124Z,98980.40
2023-04-20T02:10:07.202Z,98978.00
2023-04-20T02:12:43.418Z,98978.20
2023-04-20T02:15:20.053Z,98979.40
2023-04-20T02:17:57.604Z,98975.80
2023-04-20T02:20:34.300Z,98973.40
2023-04-20T02:23:11.170Z,98973.80
2023-04-20T02:25:47.537Z,98975.80
2023-04-20T02:28:23.907Z,98980.20
2023-04-20T02:31:00.184Z,98978.60
2023-04-20T02:33:37.442Z,98978.60
2023-04-20T02:36:15.043Z,98977.80
2023-04-20T02:38:51.287Z,98984.40
2023-04-20T02:41:30.440Z,98977.00
2023-04-20T02:44:07.068Z,98983.20
2023-04-20T02:46:45.094Z,98984.00
2023-04-20T02:49:21.698Z,98984.40
2023-04-20T02:52:03.947Z,98984.20
2023-04-20T02:54:40.245Z,98983.80
2023-04-20T02:57:20.109Z,98986.60
2023-04-20T02:59:56.726Z,98983.40
2023-04-20T03:02:47.033Z,98983.40
2023-04-20T03:05:24.333Z,98977.20
2023-04-20T03:08:01.224Z,98981.20
2023-04-20T03:10:37.692Z,98979.80
2023-04-20T03:13:22.962Z,98972.80
2023-04-20T03:16:06.885Z,98973.20
2023-04-20T03:18:51.765Z,98982.20
2023-04-20T03:21:28.735Z,98986.40
2023-04-20T03:24:06.269Z,98988.00
2023-04-20T03:26:42.800Z,98984.80
2023-04-20T03:29:25.407Z,98984.60
2023-04-20T03:32:02.333Z,98983.20
2023-04-20T03:34:38.752Z,98980.80
2023-04-20T03:37:15.678Z,98977.40
2023-04-20T03:39:52.208Z,98981.00
2023-04-20T03:42:30.311Z,98981.80
2023-04-20T03:45:08.603Z,98983.80
2023-04-20T03:47:49.365Z,98983.20
2023-04-20T03:50:26.538Z,98984.40
2023-04-20T03:53:03.138Z,98985.20
2023-04-20T03:55:40.960Z,98987.60
2023-04-20T03:58:21.158Z,98987.80
2023-04-20T04:01:21.407Z,98988.40
2023-04-20T04:03:58.615Z,98991.00
2023-04-20T04:06:35.057Z,98992.80
2023-04-20T04:09:11.629Z,98994.00
2023-04-20T04:11:47.992Z,98994.20
2023-04-20T04:14:24.452Z,98998.20
2023-04-20T04:17:02.855Z,98995.80
2023-04-20T04:19:39.958Z,98990.80
2023-04-20T04:22:16.340Z,98996.40
2023-04-20T04:25:04.122Z,99001.60
2023-04-20T04:27:42.280Z,99006.60
2023-04-20T04:30:20.012Z,99006.60
2023-04-20T04:32:57.729Z,99005.20
2023-04-20T04:35:34.725Z,99005.20
2023-04-20T04:38:12.864Z,99010.80
2023-04-20T04:40:52.587Z,99015.40
2023-04-20T04:43:31.004Z,99017.80
2023-04-20T04:46:16.723Z,99022.20
2023-04-20T04:49:13.610Z,99025.80
2023-04-20T04:51:52.760Z,99028.40
2023-04-20T04:54:36.646Z,99036.80
2023-04-20T04:57:13.048Z,99036.80
2023-04-20T04:59:49.409Z,99038.60
2023-04-20T05:02:25.853Z,99044.60
2023-04-20T05:05:02.300Z,99046.40
2023-04-20T05:07:40.284Z,99046.20
2023-04-20T05:10:16.905Z,99050.20
2023-04-20T05:13:16.515Z,99051.20
2023-04-20T05:15:57.159Z,99058.40
2023-04-20T05:18:33.652Z,99060.20
2023-04-20T05:21:11.279Z,99059.20
2023-04-20T05:23:47.604Z,99059.00
2023-04-20T05:26:24.475Z,99057.40
2023-04-20T05:29:00.628Z,99055.20
2023-04-20T05:31:36.882Z,99061.00
2023-04-20T05:34:13.929Z,99058.40
2023-04-20T05:36:51.190Z,99062.60
2023-04-20T05:39:30.672Z,99065.40
2023-04-20T05:42:07.128Z,99071.20
2023-04-20T05:44:44.170Z,99072.20
2023-04-20T05:47:20.562Z,99071.20
2023-04-20T05:49:57.004Z,99074.00
2023-04-20T05:52:33.601Z,99066.00
2023-04-20T05:55:12.196Z,99069.60
2023-04-20T05:57:48.683Z,99064.00
2023-04-20T06:00:26.457Z,99075.20
2023-04-20T06:03:03.114Z,99076.40
2023-04-20T06:05:39.796Z,99071.40
2023-04-20T06:08:19.637Z,99067.00
2023-04-20T06:10:59.507Z,99068.80
2023-04-20T06:13:35.986Z,99065.60
2023-04-20T06:16:13.369Z,99067.80
2023-04-20T06:18:52.375Z,99073.40
2023-04-20T06:21:28.699Z,99076.40
2023-04-20T06:24:05.659Z,99077.00
2023-04-20T06:26:41.895Z,99079.20
2023-04-20T06:29:18.883Z,99081.80
2023-04-20T06:31:55.372Z,99078.00
2023-04-20T06:34:41.318Z,99080.20
2023-04-20T06:37:21.698Z,99081.20
2023-04-20T06:40:00.572Z,99080.40
2023-04-20T06:42:37.525Z,99079.20
2023-04-20T06:45:16.200Z,99070.60
2023-04-20T06:47:52.494Z,99073.40
2023-04-20T06:50:29.449Z,99075.40
2023-04-20T06:53:06.779Z,99077.80
2023-04-20T06:55:43.333Z,99076.20
2023-04-20T06:58:19.764Z,99078.00
2023-04-20T07:00:56.080Z,99082.40
2023-04-20T07:03:32.881Z,99082.80
2023-04-20T07:06:11.360Z,99086.80
2023-04-20T07:08:48.236Z,99089.60
2023-04-20T07:11:25.029Z,99086.00
2023-04-20T07:14:01.542Z,99088.20
2023-04-20T07:16:37.918Z,99090.20
2023-04-20T07:19:14.378Z,99091.20
2023-04-20T07:21:50.665Z,99092.20
2023-04-20T07:24:27.823Z,99093.20
2023-04-20T07:27:08.941Z,99096.20
2023-04-20T07:29:45.413Z,99101.60
2023-04-20T07:32:21.922Z,99102.40
2023-04-20T07:34:58.514Z,99107.00
2023-04-20T07:37:36.631Z,99103.80
2023-04-20T07:40:17.045Z,99104.40
2023-04-20T07:43:00.015Z,99105.80
2023-04-20T07:45:36.921Z,99106.00
2023-04-20T07:48:15.216Z,99104.20
2023-04-20T07:50:51.873Z,99110.20
2023-04-20T07:53:28.428Z,99106.40
2023-04-20T07:56:05.339Z,99105.60
2023-04-20T07:58:41.565Z,99110.40
2023-04-20T08:01:18.089Z,99111.80
2023-04-20T08:03:58.980Z,99113.20
2023-04-20T08:06:35.860Z,99112.40
2023-04-20T08:09:13.407Z,99114.40
2023-04-20T08:11:49.988Z,99118.40
2023-04-20T08:14:26.421Z,99117.00
2023-04-20T08:17:03.793Z,99118.60
2023-04-20T08:19:43.787Z,99124.40
2023-04-20T08:22:22.153Z,99120.80
2023-04-20T08:24:58.681Z,99128.40
2023-04-20T08:27:35.021Z,99125.00
2023-04-20T08:30:14.513Z,99129.20
2023-04-20T08:32:51.029Z,99130.00
2023-04-20T08:35:27.696Z,99131.80
2023-04-20T08:38:03.995Z,99135.80
2023-04-20T08:40:41.324Z,99131.60
2023-04-20T08:43:17.677Z,99125.60
2023-04-20T08:45:59.120Z,99126.00
2023-04-20T08:48:39.445Z,99127.80
2023-04-20T08:51:18.288Z,99129.40
2023-04-20T08:53:56.185Z,99126.20
2023-04-20T08:56:44.011Z,99130.20
2023-04-20T08:59:21.493Z,99125.00
2023-04-20T09:01:57.914Z,99128.40
2023-04-20T09:04:34.697Z,99127.60
2023-04-20T09:07:24.166Z,99128.00
2023-04-20T09:10:04.818Z,99129.20
2023-04-20T09:12:48.389Z,99133.60
2023-04-20T09:15:35.965Z,99133.80
2023-04-20T09:18:21.573Z,99133.00
2023-04-20T09:21:10.719Z,99135.80
2023-04-20T09:23:56.927Z,99138.40
2023-04-20T09:26:37.452Z,99146.80
2023-04-20T09:29:25.756Z,99140.00
2023-04-20T09:32:02.231Z,99137.80
2023-04-20T09:34:48.739Z,99137.80
2023-04-20T09:37:26.748Z,99141.00
2023-04-20T09:40:06.317Z,99141.80
2023-04-20T09:42:44.993Z,99142.20
2023-04-20T09:45:22.235Z,99139.80
2023-04-20T09:48:00.798Z,99143.80
2023-04-20T09:50:48.487Z,99139.80
2023-04-20T09:53:26.485Z,99136.60
2023-04-20T09:56:04.383Z,99138.60
2023-04-20T09:58:41.474Z,99139.60
2023-04-20T10:01:25.665Z,99136.80
2023-04-20T10:04:11.945Z,99138.00
2023-04-20T10:07:06.225Z,99137.60
2023-04-20T10:09:42.707Z,99135.80
2023-04-20T10:12:20.441Z,99134.20
2023-04-20T10:15:02.480Z,99136.00
2023-04-20T10:17:39.976Z,99134.60
2023-04-20T10:20:28.527Z,99134.60
2023-04-20T10:23:16.356Z,99135.00
2023-04-20T10:26:04.047Z,99135.40
2023-04-20T10:28:49.907Z,99134.60
2023-04-20T10:31:36.411Z,99132.60
2023-04-20T10:34:13.121Z,99129.40
2023-04-20T10:36:49.549Z,99128.80
2023-04-20T10:39:27.733Z,99129.80
2023-04-20T10:42:04.075Z,99127.60
2023-04-20T10:44:50.623Z,99126.40
2023-04-20T10:47:37.734Z,99130.60
2023-04-20T10:50:19.656Z,99128.20
2023-04-20T10:52:57.400Z,99125.80
2023-04-20T10:55:34.425Z,99126.80
2023-04-20T10:58:10.982Z,99119.60
2023-04-20T11:00:57.877Z,99121.80
2023-04-20T11:03:36.378Z,99120.20
2023-04-20T11:06:13.935Z,99115.80
2023-04-20T11:08:50.354Z,99114.80
2023-04-20T11:11:40.467Z,99116.80
2023-04-20T11:14:26.995Z,99113.60
2023-04-20T11:17:03.725Z,99113.80
2023-04-20T11:19:41.252Z,99111.40
2023-04-20T11:22:25.517Z,99109.20
2023-04-20T11:25:15.044Z,99114.80
2023-04-20T11:27:51.377Z,99117.80
2023-04-20T11:30:28.077Z,99112.40
2023-04-20T11:33:04.573Z,99116.20
2023-04-20T11:35:44.858Z,99114.20
2023-04-20T11:38:32.204Z,99113.80
2023-04-20T11:41:09.999Z,99115.20
2023-04-20T11:43:46.777Z,99114.40
2023-04-20T11:46:44.178Z,99114.40
2023-04-20T11:49:21.608Z,99109.00
2023-04-20T11:51:58.363Z,99105.60
2023-04-20T11:54:35.226Z,99105.60
2023-04-20T11:57:11.679Z,99107.40
2023-04-20T11:59:49.355Z,99107.40
2023-04-20T12:02:26.194Z,99103.80
2023-04-20T12:05:03.828Z,99112.40
2023-04-20T12:07:40.707Z,99116.80
2023-04-20T12:10:17.176Z,99110.00
2023-04-20T12:12:53.878Z,99112.80
2023-04-20T12:15:30.358Z,99111.80
2023-04-20T12:18:07.064Z,99110.80
2023-04-20T12:20:43.377Z,99109.00
2023-04-20T12:23:20.412Z,99103.60
2023-04-20T12:25:56.665Z,99105.00
2023-04-20T12:28:33.406Z,99103.60
2023-04-20T12:31:10.043Z,99100.20
2023-04-20T12:33:46.484Z,99099.60
2023-04-20T12:36:22.846Z,99095.00
2023-04-20T12:38:59.588Z,99094.60
2023-04-20T12:41:43.819Z,99095.00
2023-04-20T12:44:20.533Z,99093.40
2023-04-20T12:46:57.407Z,99091.00
2023-04-20T12:49:34.382Z,99093.20
2023-04-20T12:52:11.385Z,99081.60
2023-04-20T12:54:47.605Z,99080.20
2023-04-20T12:57:24.110Z,99081.20
2023-04-20T13:00:02.697Z,99079.00
2023-04-20T13:02:39.388Z,99083.20
2023-04-20T13:05:16.655Z,99079.40
2023-04-20T13:08:04.720Z,99075.20
2023-04-20T13:10:43.609Z,99075.80
2023-04-20T13:13:19.856Z,99071.20
2023-04-20T13:15:57.760Z,99067.20
2023-04-20T13:18:34.989Z,99070.20
2023-04-20T13:21:15.879Z,99070.20
2023-04-20T13:23:58.167Z,99061.80
2023-04-20T13:26:34.691Z,99065.40
2023-04-20T13:29:11.417Z,99058.40
2023-04-20T13:31:48.630Z,99061.40
2023-04-20T13:34:25.046Z,99062.60
2023-04-20T13:37:01.428Z,99065.00
2023-04-20T13:39:37.979Z,99063.20
2023-04-20T13:42:14.452Z,99061.00
2023-04-20T13:44:54.929Z,99062.40
2023-04-20T13:47:31.501Z,99060.80
2023-04-20T13:50:09.740Z,99063.20
2023-04-20T13:52:46.291Z,99062.00
2023-04-20T13:55:26.929Z,99061.60
2023-04-20T13:58:03.550Z,99058.20
2023-04-20T14:00:39.891Z,99055.40
2023-04-20T14:03:21.368Z,99054.20
2023-04-20T14:05:58.114Z,99056.60
2023-04-20T14:08:34.706Z,99051.60
2023-04-20T14:11:11.279Z,99050.80
2023-04-20T14:13:50.185Z,99050.60
2023-04-20T14:16:27.847Z,99048.60
2023-04-20T14:19:04.679Z,99046.40
2023-04-20T14:21:44.468Z,99051.00
2023-04-20T14:24:20.827Z,99052.00
2023-04-20T14:26:58.496Z,99045.20
2023-04-20T14:29:36.164Z,99042.60
2023-04-20T14:32:16.020Z,99045.20
2023-04-20T14:34:52.343Z,99045.60
2023-04-20T14:37:28.758Z,99045.40
2023-04-20T14:40:07.390Z,99048.20
2023-04-20T14:42:43.678Z,99047.60
2023-04-20T14:45:20.986Z,99048.20
2023-04-20T14:48:00.204Z,99045.40
2023-04-20T14:50:41.561Z,99045.40
2023-04-20T14:53:19.073Z,99044.00
2023-04-20T14:55:56.362Z,99044.20
2023-04-20T14:58:36.271Z,99040.60
2023-04-20T15:01:12.966Z,99040.20
2023-04-20T15:03:53.385Z,99043.20
2023-04-20T15:06:30.927Z,99038.20
2023-04-20T15:09:07.558Z,99036.60
2023-04-20T15:11:57.026Z,99034.20
2023-04-20T15:14:33.800Z,99032.60
2023-04-20T15:17:11.815Z,99038.20
2023-04-20T15:19:48.174Z,99034.40
2023-04-20T15:22:24.861Z,99038.60
2023-04-20T15:25:01.125Z,99036.40
2023-04-20T15:27:38.117Z,99036.60
2023-04-20T15:30:16.430Z,99039.00
2023-04-20T15:32:53.468Z,99040.40
2023-04-20T15:35:30.153Z,99042.60
2023-04-20T15:38:07.030Z,99041.40
2023-04-20T15:40:45.055Z,99039.00
2023-04-20T15:43:21.334Z,99033.60
2023-04-20T15:45:57.776Z,99029.40
2023-04-20T15:48:34.421Z,99034.60
2023-04-20T15:51:11.052Z,99033.20
2023-04-20T15:53:50.741Z,99033.60
2023-04-20T15:56:27.426Z,99028.60
2023-04-20T15:59:04.621Z,99025.20
2023-04-20T16:01:41.412Z,99028.80
2023-04-20T16:04:18.326Z,99027.20
2023-04-20T16:07:00.969Z,99025.20
2023-04-20T16:09:40.420Z,99025.80
2023-04-20T16:12:22.407Z,99026.40
2023-04-20T16:14:58.772Z,99022.20
2023-04-20T16:17:43.326Z,99023.40
2023-04-20T16:20:25.265Z,99022.40
2023-04-20T16:23:03.683Z,99021.20
2023-04-20T16:25:40.862Z,99023.80
2023-04-20T16:28:21.273Z,99021.80
2023-04-20T16:30:57.960Z,99023.20
2023-04-20T16:33:35.738Z,99023.00
2023-04-20T16:36:13.773Z,99023.00
2023-04-20T16:38:50.319Z,99025.40
2023-04-20T16:41:27.272Z,99030.60
2023-04-20T16:44:03.678Z,99028.40
2023-04-20T16:46:42.045Z,99028.60
2023-04-20T16:49:19.600Z,99032.80
2023-04-20T16:51:58.494Z,99032.80
2023-04-20T16:55:00.573Z,99035.00
2023-04-20T16:57:36.876Z,99031.80
2023-04-20T17:00:17.526Z,99033.60
2023-04-20T17:02:54.998Z,99034.60
2023-04-20T17:05:31.768Z,99034.20
2023-04-20T17:08:08.774Z,99032.20
2023-04-20T17:10:45.196Z,99034.60
2023-04-20T17:13:23.596Z,99031.40
2023-04-20T17:16:00.143Z,99032.00
2023-04-20T17:18:39.771Z,99033.20
2023-04-20T17:21:24.180Z,99028.20
2023-04-20T17:24:00.754Z,99026.80
2023-04-20T17:26:37.459Z,99027.60
2023-04-20T17:29:13.900Z,99031.20
2023-04-20T17:31:50.558Z,99035.00
2023-04-20T17:34:27.489Z,99029.60
2023-04-20T17:37:03.921Z,99035.00
2023-04-20T17:39:40.230Z,99034.00
2023-04-20T17:42:16.857Z,99041.40
2023-04-20T17:44:54.141Z,99041.60
2023-04-20T17:47:32.681Z,99038.40
2023-04-20T17:50:13.470Z,99039.20
2023-04-20T17:52:49.985Z,99034.40
2023-04-20T17:55:26.860Z,99036.40
2023-04-20T17:58:04.887Z,99031.40
2023-04-20T18:00:41.485Z,99031.60
2023-04-20T18:03:20.159Z,99031.00
2023-04-20T18:05:56.895Z,99031.40
2023-04-20T18:08:34.516Z,99030.80
2023-04-20T18:11:11.613Z,99034.60
2023-04-20T18:13:47.973Z,99030.80
2023-04-20T18:16:24.397Z,99034.00
2023-04-20T18:19:29.368Z,99031.40
2023-04-20T18:22:06.238Z,99034.80
2023-04-20T18:24:42.686Z,99031.60
2023-04-20T18:27:19.076Z,99036.00
2023-04-20T18:29:59.919Z,99034.20
2023-04-20T18:32:38.733Z,99038.80
2023-04-20T18:35:16.743Z,99040.20
2023-04-20T18:37:53.694Z,99041.20
2023-04-20T18:40:30.021Z,99043.60
2023-04-20T18:43:16.508Z,99041.60
2023-04-20T18:45:52.778Z,99042.20
2023-04-20T18:48:29.244Z,99039.60
2023-04-20T18:51:05.774Z,99044.20
2023-04-20T18:53:42.281Z,99042.40
2023-04-20T18:56:21.135Z,99042.20
2023-04-20T18:58:59.626Z,99046.00
2023-04-20T19:01:40.664Z,99042.60
2023-04-20T19:04:17.509Z,99040.80
2023-04-20T19:06:54.252Z,99037.60
2023-04-20T19:09:31.059Z,99036.60
2023-04-20T19:12:12.595Z,99038.60
2023-04-20T19:14:49.642Z,99033.60
2023-04-20T19:17:33.563Z,99040.80
2023-04-20T19:20:13.133Z,99042.40
2023-04-20T19:22:49.639Z,99038.60
2023-04-20T19:25:29.730Z,99040.60
2023-04-20T19:28:08.255Z,99037.20
2023-04-20T19:30:44.815Z,99038.40
2023-04-20T19:33:21.435Z,99036.80
2023-04-20T19:36:14.901Z,99034.20
2023-04-20T19:38:51.840Z,99034.00
2023-04-20T19:41:29.045Z,99031.60
2023-04-20T19:44:06.622Z,99029.60
2023-04-20T19:46:44.967Z,99031.40
2023-04-20T19:49:21.654Z,99030.40
2023-04-20T19:52:00.975Z,99029.40
2023-04-20T19:54:37.341Z,99034.80
2023-04-20T19:57:14.118Z,99033.40
2023-04-20T19:59:51.170Z,99032.20
2023-04-20T20:02:28.432Z,99027.40
2023-04-20T20:05:06.801Z,99029.40
2023-04-20T20:07:49.014Z,99033.60
2023-04-20T20:10:25.457Z,99033.20
2023-04-20T20:13:02.126Z,99032.80
2023-04-20T20:15:38.633Z,99036.00
2023-04-20T20:18:26.012Z,99029.80
2023-04-20T20:21:02.392Z,99029.20
2023-04-20T20:23:38.754Z,99026.20
2023-04-20T20:26:15.211Z,99027.00
2023-04-20T20:28:51.706Z,99028.20
2023-04-20T20:31:28.790Z,99023.80
2023-04-20T20:34:06.748Z,99025.00
2023-04-20T20:36:46.014Z,99023.60
2023-04-20T20:39:23.278Z,99019.20
2023-04-20T20:41:59.828Z,99022.80
2023-04-20T20:44:39.200Z,99020.80
2023-04-20T20:47:15.677Z,99023.00
2023-04-20T20:49:52.048Z,99023.00
2023-04-20T20:52:28.413Z,99020.20
2023-04-20T20:55:05.294Z,99025.80
2023-04-20T20:57:41.629Z,99022.40
2023-04-20T21:00:20.420Z,99023.60
2023-04-20T21:02:57.850Z,99024.00
2023-04-20T21:05:39.956Z,99018.20
2023-04-20T21:08:17.400Z,99015.20
2023-04-20T21:10:53.914Z,99019.00
2023-04-20T21:13:30.379Z,99016.60
2023-04-20T21:16:07.313Z,99019.60
2023-04-20T21:18:57.462Z,99018.60
2023-04-20T21:21:34.628Z,99022.60
2023-04-20T21:24:12.694Z,99017.00
2023-04-20T21:26:49.104Z,99020.60
2023-04-20T21:29:26.879Z,99025.60
2023-04-20T21:32:03.258Z,99023.00
2023-04-20T21:34:39.828Z,99025.20
2023-04-20T21:37:16.300Z,99022.40
2023-04-20T21:39:53.529Z,99020.80
2023-04-20T21:42:29.856Z,99025.20
2023-04-20T21:45:10.558Z,99021.60
2023-04-20T21:47:48.377Z,99025.80
2023-04-20T21:50:27.196Z,99025.00
2023-04-20T21:53:03.729Z,99018.40
2023-04-20T21:55:40.177Z,99017.60
2023-04-20T21:58:18.484Z,99019.40
2023-04-20T22:00:54.984Z,99015.80
2023-04-20T22:03:32.417Z,99021.00
2023-04-20T22:06:09.966Z,99013.20
2023-04-20T22:08:46.626Z,99014.80
2023-04-20T22:11:22.876Z,99013.20
2023-04-20T22:14:02.369Z,99009.40
2023-04-20T22:16:39.292Z,99009.40
2023-04-20T22:19:16.346Z,99013.40
2023-04-20T22:21:54.664Z,99010.80
2023-04-20T22:24:30.952Z,99010.00
2023-04-20T22:27:09.431Z,99008.00
2023-04-20T22:29:48.325Z,99012.00
2023-04-20T22:32:28.550Z,99009.60
2023-04-20T22:35:10.244Z,99009.00
2023-04-20T22:37:46.566Z,99011.80
2023-04-20T22:40:23.066Z,99014.60
2023-04-20T22:43:09.780Z,99018.00
2023-04-20T22:45:46.781Z,99016.20
2023-04-20T22:48:23.213Z,99017.60
2023-04-20T22:51:04.094Z,99019.00
2023-04-20T22:53:40.335Z,99021.40
2023-04-20T22:56:17.430Z,99022.80
2023-04-20T22:58:59.435Z,99018.20
2023-04-20T23:01:35.786Z,99016.20
2023-04-20T23:04:12.485Z,99016.00
2023-04-20T23:06:48.735Z,99015.00
2023-04-20T23:09:25.115Z,99016.00
2023-04-20T23:12:03.811Z,99014.40
2023-04-20T23:14:43.751Z,99014.00
2023-04-20T23:17:20.222Z,99015.40
2023-04-20T23:19:56.716Z,99016.80
2023-04-20T23:22:33.078Z,99018.00
2023-04-20T23:25:11.429Z,99020.60
2023-04-20T23:27:56.432Z,99024.20
2023-04-20T23:30:32.913Z,99028.00
2023-04-20T23:33:24.418Z,99035.00
2023-04-20T23:36:05.743Z,99036.40
2023-04-20T23:38:42.168Z,99037.00
2023-04-20T23:41:19.905Z,99038.40
2023-04-20T23:43:57.558Z,99040.20
2023-04-20T23:46:34.605Z,99033.60
2023-04-20T23:49:11.527Z,99031.40
2023-04-20T23:52:00.885Z,99028.80
2023-04-20T23:54:38.432Z,99025.00
2023-04-20T23:57:14.835Z,99022.20
2023-04-20T23:59:51.408Z,99020.20
